TVS152 LKPR-LEPA
Flight info
| Callsign | TVS152 |
|---|---|
| Flight time | N/A |
| Altitude | 35000 |
| Route | DOBEN5B DOBEN DCT RUDAP P31 DOSEL DCT EBEDA DCT BADVI DCT BERAS DCT OLPIX DCT EKPEB DCT PIDAD DCT TALEP DCT RARQU DCT BALEN UT250 RIXOT RIXOT2M |
| Aircraft | B738/M-SDE2E3FGHIRWXY/LB1 |
Departure
| Time | 2026-05-06 17:57 |
|---|---|
| Airport | Václav Havel Airport Prague (LKPR) |
Arrival
| Time | N/A |
|---|---|
| Airport | Palma de Mallorca Airport (LEPA) |
| Time | Latitude | Longitude | Altitude | Speed | Heading |
|---|---|---|---|---|---|
| 2026-05-06 17:15 | 50.10893 | 14.25719 | 1161 ft | 0 kts | 304° |
| 2026-05-06 17:43 | 50.10881 | 14.25750 | 1161 ft | 4 kts | 294° |
| 2026-05-06 17:43 | 50.10873 | 14.25789 | 1162 ft | 4 kts | 271° |
| 2026-05-06 17:43 | 50.10879 | 14.25823 | 1161 ft | 3 kts | 218° |
| 2026-05-06 17:44 | 50.10882 | 14.25826 | 1162 ft | 1 kts | 214° |
| 2026-05-06 17:47 | 50.10870 | 14.25813 | 1164 ft | 3 kts | 214° |
| 2026-05-06 17:47 | 50.10841 | 14.25784 | 1167 ft | 9 kts | 214° |
| 2026-05-06 17:48 | 50.10791 | 14.25732 | 1168 ft | 8 kts | 214° |
| 2026-05-06 17:48 | 50.10744 | 14.25682 | 1168 ft | 8 kts | 215° |
| 2026-05-06 17:48 | 50.10698 | 14.25632 | 1170 ft | 8 kts | 214° |
| 2026-05-06 17:48 | 50.10648 | 14.25629 | 1173 ft | 8 kts | 149° |
| 2026-05-06 17:49 | 50.10617 | 14.25694 | 1174 ft | 7 kts | 116° |
| 2026-05-06 17:49 | 50.10593 | 14.25762 | 1174 ft | 7 kts | 120° |
| 2026-05-06 17:49 | 50.10566 | 14.25827 | 1172 ft | 7 kts | 123° |
| 2026-05-06 17:49 | 50.10540 | 14.25888 | 1174 ft | 7 kts | 124° |
| 2026-05-06 17:50 | 50.10513 | 14.25949 | 1172 ft | 7 kts | 126° |
| 2026-05-06 17:50 | 50.10479 | 14.26020 | 1174 ft | 9 kts | 127° |
| 2026-05-06 17:50 | 50.10444 | 14.26092 | 1175 ft | 8 kts | 127° |
| 2026-05-06 17:50 | 50.10410 | 14.26162 | 1175 ft | 8 kts | 127° |
| 2026-05-06 17:51 | 50.10376 | 14.26230 | 1174 ft | 8 kts | 127° |
| 2026-05-06 17:51 | 50.10345 | 14.26296 | 1174 ft | 8 kts | 126° |
| 2026-05-06 17:51 | 50.10290 | 14.26411 | 1175 ft | 15 kts | 127° |
| 2026-05-06 17:51 | 50.10229 | 14.26534 | 1174 ft | 14 kts | 128° |
| 2026-05-06 17:52 | 50.10172 | 14.26654 | 1175 ft | 13 kts | 127° |
| 2026-05-06 17:52 | 50.10116 | 14.26770 | 1182 ft | 15 kts | 126° |
| 2026-05-06 17:52 | 50.10051 | 14.26903 | 1190 ft | 15 kts | 127° |
| 2026-05-06 17:52 | 50.09989 | 14.27034 | 1196 ft | 14 kts | 126° |
| 2026-05-06 17:53 | 50.09931 | 14.27154 | 1199 ft | 14 kts | 126° |
| 2026-05-06 17:53 | 50.09874 | 14.27271 | 1201 ft | 13 kts | 128° |
| 2026-05-06 17:53 | 50.09812 | 14.27375 | 1203 ft | 14 kts | 135° |
| 2026-05-06 17:53 | 50.09746 | 14.27475 | 1205 ft | 13 kts | 136° |
| 2026-05-06 17:54 | 50.09681 | 14.27578 | 1206 ft | 14 kts | 135° |
| 2026-05-06 17:54 | 50.09598 | 14.27703 | 1210 ft | 18 kts | 136° |
| 2026-05-06 17:54 | 50.09509 | 14.27841 | 1212 ft | 18 kts | 135° |
| 2026-05-06 17:54 | 50.09422 | 14.27974 | 1214 ft | 17 kts | 134° |
| 2026-05-06 17:55 | 50.09339 | 14.28101 | 1214 ft | 16 kts | 136° |
| 2026-05-06 17:55 | 50.09259 | 14.28222 | 1212 ft | 15 kts | 135° |
| 2026-05-06 17:55 | 50.09168 | 14.28282 | 1210 ft | 15 kts | 193° |
| 2026-05-06 17:55 | 50.09091 | 14.28197 | 1209 ft | 10 kts | 221° |
| 2026-05-06 17:56 | 50.09078 | 14.28098 | 1207 ft | 11 kts | 301° |
| 2026-05-06 17:56 | 50.09105 | 14.28042 | 1208 ft | 29 kts | 308° |
| 2026-05-06 17:56 | 50.09403 | 14.27426 | 1209 ft | 112 kts | 306° |
| 2026-05-06 17:56 | 50.10022 | 14.26149 | 1212 ft | 180 kts | 308° |
| 2026-05-06 17:57 | 50.10841 | 14.24458 | 1916 ft | 199 kts | 307° |
| 2026-05-06 17:57 | 50.11639 | 14.22732 | 2929 ft | 202 kts | 304° |
| 2026-05-06 17:57 | 50.12453 | 14.20966 | 3795 ft | 198 kts | 306° |
| 2026-05-06 17:57 | 50.13321 | 14.19196 | 4347 ft | 213 kts | 306° |
| 2026-05-06 17:58 | 50.14228 | 14.17349 | 4886 ft | 210 kts | 305° |
| 2026-05-06 17:58 | 50.15102 | 14.15561 | 5149 ft | 215 kts | 304° |
| 2026-05-06 17:58 | 50.16061 | 14.13579 | 5359 ft | 242 kts | 304° |
| 2026-05-06 17:58 | 50.16770 | 14.12108 | 5525 ft | 261 kts | 304° |
| 2026-05-06 17:59 | 50.18049 | 14.08815 | 6262 ft | 273 kts | 281° |
| 2026-05-06 17:59 | 50.18172 | 14.06841 | 6770 ft | 270 kts | 262° |
| 2026-05-06 17:59 | 50.17602 | 14.04145 | 7596 ft | 266 kts | 235° |
| 2026-05-06 17:59 | 50.16316 | 14.02062 | 8438 ft | 265 kts | 214° |
| 2026-05-06 18:00 | 50.14733 | 14.00600 | 9240 ft | 268 kts | 209° |
| 2026-05-06 18:00 | 50.13176 | 13.99312 | 9949 ft | 271 kts | 208° |
| 2026-05-06 18:00 | 50.11445 | 13.97911 | 10267 ft | 291 kts | 208° |
| 2026-05-06 18:00 | 50.09573 | 13.96395 | 10444 ft | 314 kts | 208° |
| 2026-05-06 18:01 | 50.07537 | 13.94736 | 10613 ft | 337 kts | 208° |
| 2026-05-06 18:01 | 50.05405 | 13.92989 | 10760 ft | 357 kts | 209° |
| 2026-05-06 18:01 | 50.03160 | 13.91130 | 11044 ft | 371 kts | 209° |
| 2026-05-06 18:01 | 50.00867 | 13.89227 | 11583 ft | 375 kts | 209° |
| 2026-05-06 18:02 | 49.98569 | 13.87322 | 11721 ft | 377 kts | 209° |
| 2026-05-06 18:02 | 49.96257 | 13.85407 | 11726 ft | 376 kts | 209° |
| 2026-05-06 18:02 | 49.93942 | 13.83496 | 11730 ft | 376 kts | 209° |
| 2026-05-06 18:02 | 49.91628 | 13.81587 | 11744 ft | 376 kts | 209° |
| 2026-05-06 18:03 | 49.89314 | 13.79672 | 11741 ft | 377 kts | 209° |
| 2026-05-06 18:03 | 49.86999 | 13.77758 | 11726 ft | 377 kts | 209° |
| 2026-05-06 18:03 | 49.84672 | 13.75836 | 12047 ft | 381 kts | 209° |
| 2026-05-06 18:03 | 49.82322 | 13.73899 | 12722 ft | 383 kts | 209° |
| 2026-05-06 18:04 | 49.79960 | 13.71955 | 13392 ft | 385 kts | 209° |
| 2026-05-06 18:04 | 49.77584 | 13.70001 | 13968 ft | 388 kts | 209° |
| 2026-05-06 18:04 | 49.75195 | 13.68040 | 14557 ft | 390 kts | 209° |
| 2026-05-06 18:04 | 49.72786 | 13.66064 | 15149 ft | 392 kts | 209° |
| 2026-05-06 18:05 | 49.70372 | 13.64086 | 15729 ft | 394 kts | 208° |
| 2026-05-06 18:05 | 49.67945 | 13.62099 | 16293 ft | 396 kts | 208° |
| 2026-05-06 18:05 | 49.65502 | 13.60103 | 16864 ft | 398 kts | 208° |
| 2026-05-06 18:05 | 49.63069 | 13.58117 | 17396 ft | 401 kts | 208° |
| 2026-05-06 18:06 | 49.60593 | 13.56099 | 17916 ft | 404 kts | 208° |
| 2026-05-06 18:06 | 49.58101 | 13.54071 | 18393 ft | 406 kts | 208° |
| 2026-05-06 18:06 | 49.55599 | 13.52036 | 18863 ft | 408 kts | 208° |
| 2026-05-06 18:06 | 49.53083 | 13.49993 | 19332 ft | 409 kts | 208° |
| 2026-05-06 18:07 | 49.50558 | 13.47943 | 19780 ft | 411 kts | 208° |
| 2026-05-06 18:07 | 49.48023 | 13.45887 | 20225 ft | 413 kts | 208° |
| 2026-05-06 18:07 | 49.45476 | 13.43824 | 20662 ft | 415 kts | 208° |
| 2026-05-06 18:07 | 49.42915 | 13.41752 | 21098 ft | 416 kts | 208° |
| 2026-05-06 18:08 | 49.40346 | 13.39676 | 21506 ft | 418 kts | 208° |
| 2026-05-06 18:08 | 49.37761 | 13.37590 | 21873 ft | 421 kts | 208° |
| 2026-05-06 18:08 | 49.35166 | 13.35497 | 22244 ft | 423 kts | 208° |
| 2026-05-06 18:08 | 49.32553 | 13.33393 | 22618 ft | 425 kts | 208° |
| 2026-05-06 18:09 | 49.29930 | 13.31282 | 23004 ft | 426 kts | 208° |
| 2026-05-06 18:09 | 49.27295 | 13.29164 | 23357 ft | 428 kts | 208° |
| 2026-05-06 18:09 | 49.24644 | 13.27038 | 23637 ft | 430 kts | 208° |
| 2026-05-06 18:09 | 49.21980 | 13.24941 | 23953 ft | 431 kts | 207° |
| 2026-05-06 18:10 | 49.19291 | 13.22897 | 24264 ft | 432 kts | 207° |
| 2026-05-06 18:10 | 49.16587 | 13.20856 | 24530 ft | 434 kts | 207° |
| 2026-05-06 18:10 | 49.14127 | 13.18993 | 24765 ft | 436 kts | 207° |
| 2026-05-06 18:10 | 49.11403 | 13.16926 | 25030 ft | 438 kts | 207° |
| 2026-05-06 18:11 | 49.08670 | 13.14883 | 25334 ft | 437 kts | 207° |
| 2026-05-06 18:11 | 49.05929 | 13.12854 | 25616 ft | 439 kts | 207° |
| 2026-05-06 18:11 | 49.03176 | 13.10825 | 25879 ft | 440 kts | 207° |
| 2026-05-06 18:11 | 49.00421 | 13.08796 | 26214 ft | 439 kts | 207° |
| 2026-05-06 18:12 | 48.97676 | 13.06774 | 26593 ft | 437 kts | 207° |
| 2026-05-06 18:12 | 48.94951 | 13.04766 | 27000 ft | 435 kts | 207° |
| 2026-05-06 18:12 | 48.92226 | 13.02758 | 27335 ft | 434 kts | 207° |
| 2026-05-06 18:12 | 48.89510 | 13.00759 | 27706 ft | 433 kts | 207° |
| 2026-05-06 18:13 | 48.86798 | 12.98765 | 28107 ft | 432 kts | 207° |
| 2026-05-06 18:13 | 48.84097 | 12.96781 | 28493 ft | 431 kts | 207° |
| 2026-05-06 18:13 | 48.81404 | 12.94805 | 28873 ft | 429 kts | 207° |